Date,TemperatureHighF,TemperatureAvgF,TemperatureLowF,DewpointHighF,DewpointAvgF,DewpointLowF,HumidityHigh,HumidityAvg,HumidityLow,PressureMaxIn,PressureMinIn,WindSpeedMaxMPH,WindSpeedAvgMPH,GustSpeedMaxMPH,PrecipitationSumIn
2013-1-2,34,32,26,18,15,14,75,50,44,0.00,40.00,11,7,21,0.00
2013-1-3,35,29,24,19,17,14,75,62,42,0.00,40.00,10,3,16,0.00
2013-1-5,40,38,34,22,21,20,59,51,47,0.00,40.00,12,7,20,0.00
2013-1-6,49,48,47,29,28,27,48,46,44,0.00,40.00,11,6,14,0.00
2013-1-7,46,44,41,29,28,26,56,53,48,0.00,40.00,15,7,16,0.00
2013-1-8,52,49,46,34,33,33,61,55,49,0.00,40.00,5,3,12,0.00
2013-1-9,52,52,52,40,40,40,64,64,64,0.00,40.00,5,5,7,0.00
2013-1-10,49,48,48,29,28,28,45,45,45,0.00,40.00,5,4,21,0.00
2013-1-11,49,45,32,48,42,30,97,89,71,0.00,40.00,4,2,19,0.00
2013-1-12,54,47,41,48,45,40,97,92,78,0.00,40.00,5,2,8,0.00
2013-1-13,50,46,41,50,45,40,98,97,97,0.00,40.00,5,3,14,0.00
2013-1-14,55,53,49,55,51,43,98,92,69,0.00,40.00,8,2,13,0.00
2013-1-18,35,34,34,15,12,9,43,40,35,0.00,40.00,8,7,16,0.00
2013-1-19,51,47,45,27,26,26,47,44,39,0.00,40.00,11,10,16,0.00
2013-1-20,54,51,49,31,31,31,49,45,41,0.00,40.00,3,3,14,0.00
2013-1-21,34,34,33,24,17,12,69,52,39,0.00,40.00,5,4,11,0.00
2013-1-22,22,19,16,-1,-3,-5,45,40,32,0.00,40.00,21,10,30,0.00
2013-1-23,22,18,14,6,-1,-3,67,47,35,0.00,40.00,10,5,18,0.00
2013-1-24,25,20,15,7,2,-5,74,48,27,0.00,40.00,14,6,26,0.00
2013-1-25,22,19,17,16,6,-1,92,62,41,0.00,40.00,5,3,11,0.00
2013-1-26,28,21,10,15,12,5,93,72,51,0.00,40.00,12,5,19,0.00
2013-1-27,35,24,9,16,12,4,90,65,39,0.00,40.00,8,3,16,0.00
2013-1-28,36,32,24,35,29,20,96,89,75,0.00,40.00,5,2,11,0.00
2013-1-29,57,52,46,47,45,43,87,76,68,0.00,40.00,5,4,11,0.00
2013-1-30,66,53,47,57,50,45,94,88,72,0.00,40.00,10,6,23,0.00
2013-1-31,30,30,30,11,11,11,44,44,44,0.00,40.00,5,5,17,0.00
2013-2-1,28,24,21,26,12,5,95,66,44,0.00,40.00,12,8,21,0.00
2013-2-2,29,21,15,24,9,4,94,64,43,0.00,40.00,10,5,16,0.00
2013-2-3,34,29,24,25,23,20,96,81,57,0.00,40.00,5,2,11,0.00
2013-2-4,32,28,23,22,15,10,68,59,48,0.00,40.00,11,6,17,0.00
2013-2-5,38,36,31,29,28,26,81,72,66,0.00,40.00,5,3,10,0.00
2013-2-6,40,36,27,26,24,22,96,64,52,0.00,40.00,11,6,18,0.00
2013-2-7,36,34,32,24,20,15,65,55,46,0.00,40.00,5,3,12,0.00
2013-2-8,40,36,34,38,34,30,95,90,76,0.00,40.00,10,6,25,0.00
2013-2-9,35,31,27,29,17,10,78,56,43,0.00,40.00,25,13,36,0.00
2013-2-10,39,30,19,28,14,7,80,55,28,0.00,40.00,9,4,15,0.00
2013-2-11,54,45,36,51,43,30,96,92,79,0.00,40.00,17,4,20,0.00
2013-2-12,50,43,32,41,29,25,80,59,41,0.00,40.00,11,5,25,0.00
2013-2-13,49,35,25,34,28,23,96,78,43,0.00,40.00,10,3,11,0.00
2013-2-14,46,39,33,34,33,31,96,80,58,0.00,40.00,10,4,12,0.00
2013-2-15,54,42,30,38,34,29,95,75,52,0.00,40.00,10,4,18,0.00
2013-2-16,41,36,32,35,29,17,92,77,53,0.00,40.00,9,6,16,0.00
2013-2-17,32,29,25,16,9,1,56,44,36,0.00,40.00,28,13,32,0.00
2013-2-18,37,29,21,16,8,1,54,42,30,0.00,40.00,27,9,31,0.00
2013-2-19,46,40,33,44,32,20,95,74,58,0.00,40.00,10,6,23,0.00
2013-2-20,38,32,26,27,15,9,64,51,44,0.00,40.00,20,10,30,0.00
2013-2-21,36,29,23,18,13,10,61,52,41,0.00,40.00,15,9,29,0.00
2013-2-22,37,31,25,32,22,15,91,70,58,0.00,40.00,5,3,12,0.00
2013-2-23,47,42,35,46,41,33,96,95,92,0.00,40.00,6,4,16,0.00
2013-2-24,47,41,34,39,31,21,96,71,48,0.00,40.00,15,8,26,0.00
2013-2-25,47,36,28,29,24,20,89,63,43,0.00,40.00,8,4,16,0.00
2013-2-26,46,37,26,43,32,23,96,83,63,0.00,40.00,14,5,31,0.00
2013-2-27,55,49,45,48,42,34,97,80,54,0.00,40.00,15,4,23,0.00
2013-2-28,48,42,37,39,33,26,92,71,48,0.00,40.00,10,4,15,0.00
2013-3-1,45,40,33,32,29,26,86,66,53,0.00,40.00,15,5,20,0.00
2013-3-2,39,36,31,26,23,20,75,59,46,0.00,40.00,11,6,17,0.00
2013-3-3,39,34,30,24,20,16,70,56,44,0.00,40.00,16,9,24,0.00
2013-3-4,40,34,30,21,19,16,61,54,45,0.00,40.00,20,11,31,0.00
2013-3-5,48,37,28,29,24,19,79,61,40,0.00,40.00,9,5,16,0.00
2013-3-6,40,38,34,36,34,29,89,83,74,0.00,40.00,28,13,43,0.00
2013-3-7,47,41,36,32,27,25,83,57,45,0.00,40.00,21,10,28,0.00
2013-3-8,44,38,31,32,27,19,92,65,48,0.00,40.00,17,9,31,0.00
2013-3-9,61,46,34,28,22,16,62,42,17,0.00,40.00,10,5,21,0.00
2013-3-10,49,40,28,38,33,25,91,77,58,0.00,40.00,11,3,16,0.00
2013-3-11,56,46,36,48,43,34,97,90,73,0.00,40.00,11,4,21,0.00
2013-3-12,53,50,43,52,46,33,94,83,67,0.00,40.00,14,6,26,0.00
2013-3-13,50,42,34,33,28,22,84,59,37,0.00,40.00,11,6,22,0.00
2013-3-14,43,37,32,22,17,13,63,45,30,0.00,40.00,19,10,29,0.00
2013-3-15,51,38,28,30,20,14,78,50,30,0.00,40.00,12,5,21,0.00
2013-3-16,46,39,34,34,31,27,92,73,48,0.00,40.00,8,3,17,0.00
2013-3-17,38,36,35,33,28,21,92,73,50,0.00,40.00,15,6,19,0.00
2013-3-18,43,37,33,42,28,16,96,70,48,0.00,40.00,7,4,19,0.00
2013-3-19,52,44,39,42,36,18,96,79,38,0.00,40.00,11,5,23,0.00
2013-3-20,50,42,30,26,20,15,76,42,25,0.00,40.00,18,8,26,0.00
2013-3-21,38,34,29,27,19,9,80,55,34,0.00,40.00,16,8,24,0.00
2013-3-22,43,35,29,21,18,12,62,51,36,0.00,40.00,15,8,24,0.00
2013-3-23,48,39,28,23,21,20,75,51,34,0.00,40.00,15,7,26,0.00
2013-3-24,44,37,25,26,22,17,91,58,33,0.00,40.00,7,3,14,0.00
2013-3-25,37,35,32,34,32,26,96,87,64,0.00,40.00,14,4,21,0.00
2013-3-26,52,41,32,34,31,26,96,72,38,0.00,40.00,12,5,20,0.00
2013-3-27,49,42,35,33,29,23,82,60,38,0.00,40.00,15,6,25,0.00
2013-3-28,48,42,35,32,29,25,79,61,41,0.00,40.00,12,6,21,0.00
2013-3-29,55,46,37,32,28,25,80,52,36,0.00,40.00,12,5,21,0.00
2013-3-30,58,45,29,35,27,-100,94,59,26,0.00,40.00,9,3,15,0.00
2013-3-31,53,46,38,49,40,32,96,80,44,0.00,40.00,13,6,26,0.00
2013-4-1,64,50,42,47,39,18,96,69,36,0.00,40.00,16,6,24,0.00
2013-4-2,46,40,29,23,16,12,66,39,27,0.00,40.00,15,6,27,0.00
2013-4-3,48,40,31,22,15,9,59,37,22,0.00,40.00,15,8,29,0.00
2013-4-4,47,37,24,33,22,13,88,56,29,0.00,40.00,11,3,17,0.00
2013-4-5,62,49,37,39,31,20,95,58,22,0.00,40.00,13,5,22,0.00
2013-4-6,53,44,36,31,21,14,70,41,22,0.00,40.00,9,4,23,0.00
2013-4-7,59,49,37,45,38,30,87,67,56,0.00,40.00,14,6,23,0.00
2013-4-8,75,62,49,53,47,43,79,60,37,0.00,40.00,11,4,15,0.00
2013-4-9,83,70,58,53,51,46,77,54,27,0.00,40.00,12,4,19,0.00
2013-4-10,87,74,58,60,54,52,81,52,33,0.00,40.00,14,5,25,0.00
2013-4-11,79,63,50,60,54,48,92,76,45,0.00,40.00,11,4,24,0.00
2013-4-12,54,50,46,53,48,44,96,94,89,0.00,40.00,11,7,20,0.00
2013-4-13,62,52,41,46,41,36,96,71,39,0.00,40.00,10,4,18,0.00
2013-4-14,63,52,39,47,38,29,96,65,30,0.00,40.00,10,3,22,0.00
2013-4-15,58,53,48,45,41,33,80,65,52,0.00,40.00,7,3,16,0.00
2013-4-16,67,58,49,55,50,44,87,74,64,0.00,40.00,12,6,23,0.00
2013-4-17,69,61,54,59,52,41,94,74,54,0.00,40.00,9,4,16,0.00
2013-4-18,67,59,50,59,52,39,91,78,56,0.00,40.00,11,5,21,0.00
2013-4-19,74,65,58,62,60,56,93,84,67,0.00,40.00,13,7,28,0.00
2013-4-20,59,52,48,52,35,25,92,56,30,0.00,40.00,15,7,24,0.00
2013-4-21,55,45,37,32,26,20,82,48,30,0.00,40.00,14,5,21,0.00
2013-4-22,54,44,32,40,34,29,94,68,47,0.00,40.00,11,5,23,0.00
2013-4-23,53,48,43,44,40,36,89,74,63,0.00,40.00,13,6,21,0.00
2013-4-24,65,54,39,54,48,38,96,82,63,0.00,40.00,10,4,22,0.00
2013-4-25,63,54,45,55,35,26,82,50,25,0.00,40.00,15,7,27,0.00
2013-4-26,64,54,38,40,33,25,95,52,22,0.00,40.00,10,4,23,0.00
2013-4-27,66,53,36,45,36,-100,96,59,23,0.00,40.00,11,4,13,0.00
2013-4-28,67,57,41,47,37,28,90,52,25,0.00,40.00,11,4,18,0.00
2013-4-29,58,55,52,55,52,45,95,90,68,0.00,40.00,11,5,26,0.00
2013-4-30,67,58,52,53,46,29,95,67,29,0.00,40.00,8,4,19,0.00
2013-5-1,69,55,42,44,39,29,86,60,24,0.00,40.00,13,4,18,0.00
2013-5-2,66,52,39,48,44,38,96,76,42,0.00,40.00,11,3,15,0.00
2013-5-3,64,53,43,43,41,35,94,67,36,0.00,40.00,11,4,16,0.00
2013-5-4,68,54,38,48,42,37,96,66,36,0.00,40.00,10,3,17,0.00
2013-5-5,64,52,43,49,41,38,85,67,44,0.00,40.00,9,4,17,0.00
2013-5-6,71,56,43,56,50,41,95,81,57,0.00,40.00,14,6,19,0.00
2013-5-7,69,60,53,61,56,52,96,88,69,0.00,40.00,12,5,20,0.00
2013-5-8,72,63,58,59,57,53,96,83,56,0.00,40.00,8,2,16,0.00
2013-5-9,71,63,56,59,56,54,96,81,57,0.00,40.00,9,2,11,0.00
2013-5-10,79,67,54,62,56,-100,96,72,48,0.00,40.00,7,2,11,0.00
2013-5-11,77,66,62,66,61,-100,95,86,61,0.00,40.00,8,3,0,0.00
2013-5-12,64,60,52,61,44,27,95,60,29,0.00,40.00,16,6,0,0.00
2013-5-13,58,51,42,42,31,24,80,49,31,0.00,40.00,12,4,21,0.00
2013-5-14,60,50,34,42,33,28,94,57,30,0.00,40.00,11,3,17,0.00
2013-5-15,74,63,51,60,53,44,90,72,60,0.00,40.00,11,4,15,0.00
2013-5-16,80,62,59,64,39,-100,95,73,51,0.00,40.00,14,3,14,0.00
2013-5-17,77,66,52,59,40,-100,95,54,30,0.00,40.00,8,3,16,0.00
2013-5-18,67,62,56,57,53,46,94,74,57,0.00,40.00,9,4,16,0.00
2013-5-19,66,62,59,62,60,57,95,92,87,0.00,40.00,8,4,16,0.00
2013-5-20,80,70,64,68,65,62,96,84,65,0.00,40.00,5,2,14,0.00
2013-5-21,81,74,66,70,67,64,95,81,64,0.00,40.00,7,3,14,0.00
2013-5-22,84,75,68,72,68,66,95,81,66,0.00,40.00,9,4,15,0.00
2013-5-23,79,73,67,68,66,64,90,82,66,0.00,40.00,12,5,19,0.00
2013-5-24,65,58,47,64,52,38,96,83,59,0.00,40.00,16,6,26,0.00
2013-5-25,64,54,48,42,36,31,80,53,32,0.00,40.00,21,9,27,0.00
2013-5-26,70,58,49,46,38,34,86,50,27,0.00,40.00,15,6,24,0.00
2013-5-27,71,59,42,54,44,36,93,61,29,0.00,40.00,4,2,13,0.00
2013-5-28,67,62,54,64,59,52,95,91,87,0.00,40.00,6,2,11,0.00
2013-5-29,89,76,64,69,64,62,94,70,42,0.00,40.00,6,3,12,0.00
2013-5-30,90,79,69,69,66,62,84,67,41,0.00,40.00,8,2,11,0.00
2013-5-31,89,79,69,67,66,60,91,66,39,0.00,40.00,7,3,14,0.00
2013-6-1,89,80,69,69,66,-100,91,66,45,0.00,40.00,12,4,18,0.00
2013-6-2,87,78,69,73,68,67,93,73,58,0.00,40.00,10,5,27,0.00
2013-6-3,80,72,67,70,68,66,94,87,63,0.00,40.00,5,2,11,0.00
2013-6-4,75,66,57,64,51,43,94,63,34,0.00,40.00,10,3,16,0.00
2013-6-5,77,65,51,55,50,42,94,63,30,0.00,40.00,5,2,11,0.00
2013-6-6,74,65,54,62,58,51,96,78,47,0.00,40.00,11,4,20,0.00
2013-6-7,70,67,63,69,66,62,96,94,93,0.00,40.00,13,4,18,0.00
2013-6-8,79,69,62,67,64,60,96,84,67,0.00,40.00,11,4,20,0.00
2013-6-9,80,71,62,65,62,57,96,76,48,0.00,40.00,5,2,11,0.00
2013-6-10,76,71,66,73,69,64,95,92,84,0.00,40.00,10,4,16,0.00
2013-6-11,82,74,69,70,66,64,94,77,56,0.00,40.00,15,6,21,0.00
2013-6-12,83,75,67,68,64,62,89,71,50,0.00,40.00,9,3,18,0.00
2013-6-13,86,72,66,69,65,57,95,79,52,0.00,40.00,10,4,27,1.34
2013-6-14,76,64,56,63,56,52,93,76,48,0.00,40.00,12,4,21,0.11
2013-6-15,82,69,55,64,58,54,96,71,41,0.00,40.00,9,3,14,0.00
2013-6-16,83,71,60,68,64,59,96,80,43,0.00,40.00,10,2,21,0.02
2013-6-17,86,74,65,70,66,63,96,79,53,0.00,40.00,6,2,20,1.11
2013-6-18,77,68,62,73,66,60,96,93,84,0.00,40.00,7,1,21,1.48
2013-6-19,78,68,61,62,58,51,96,76,40,0.00,40.00,11,2,14,0.00
2013-6-20,77,66,55,60,54,48,96,71,37,0.00,40.00,7,2,14,0.00
2013-6-22,83,77,71,65,63,58,73,62,50,0.00,40.00,8,3,13,0.00
2013-6-23,83,74,65,74,68,61,93,82,68,0.00,40.00,9,3,13,0.26
2013-6-24,90,80,72,74,72,68,94,78,53,0.00,40.00,5,2,17,0.00
2013-6-25,91,81,70,73,70,67,94,70,48,0.00,40.00,8,3,14,0.02
2013-6-26,89,80,69,75,70,66,93,73,50,0.00,40.00,6,2,26,0.00
2013-6-27,86,79,75,73,72,70,93,80,63,0.00,40.00,12,5,28,0.73
2013-6-28,87,77,70,72,69,67,93,78,55,0.00,40.00,8,4,19,0.23
2013-6-29,87,77,69,72,68,63,94,76,47,0.00,40.00,8,2,12,0.00
2013-6-30,81,77,75,74,72,69,93,87,73,0.00,40.00,5,3,15,0.19
2013-7-1,77,76,72,74,72,69,93,90,86,0.00,40.00,8,4,16,0.59
2013-7-2,84,77,73,75,72,69,93,85,67,0.00,40.00,10,5,21,0.28
2013-7-3,86,79,71,75,72,69,94,80,65,0.00,40.00,7,3,16,0.00
2013-7-4,89,81,75,75,72,69,94,76,55,0.00,40.00,8,3,15,0.00
2013-7-5,89,82,75,73,72,71,91,72,54,0.00,40.00,9,4,14,0.00
2013-7-6,92,82,76,75,74,69,92,77,48,0.00,40.00,8,3,14,0.00
2013-7-7,91,83,75,73,72,70,88,72,54,0.00,40.00,8,4,16,0.00
2013-7-8,84,76,71,72,70,67,93,82,61,0.00,40.00,5,2,17,0.00
2013-7-9,87,80,74,73,72,69,88,76,60,0.00,40.00,5,2,12,0.00
2013-7-10,90,80,76,75,69,-100,90,74,56,0.00,40.00,10,3,16,0.01
2013-7-11,85,77,73,73,71,68,93,81,56,0.00,40.00,7,3,11,0.16
2013-7-12,75,72,71,72,69,64,95,90,75,0.00,40.00,8,4,16,1.67
2013-7-13,85,77,71,75,72,70,95,86,67,0.00,40.00,6,3,14,0.01
2013-7-14,90,81,75,74,73,70,94,79,52,0.00,40.00,5,2,11,0.00
2013-7-15,92,82,74,76,73,70,94,77,51,0.00,40.00,8,2,13,0.00
2013-7-16,93,84,75,75,71,66,94,68,42,0.00,40.00,10,3,14,0.00
2013-7-17,94,84,71,74,72,69,95,70,44,0.00,40.00,5,1,9,0.00
2013-7-18,95,85,75,79,76,73,94,74,51,0.00,40.00,5,2,14,0.00
2013-7-19,94,87,79,77,76,73,90,71,51,0.00,40.00,6,3,16,0.00
2013-7-20,91,83,73,77,73,-100,90,74,60,0.00,40.00,11,4,24,0.75
2013-7-21,90,80,73,76,73,71,95,82,55,0.00,40.00,5,1,11,0.16
2013-7-22,87,78,73,75,73,71,94,84,61,0.00,40.00,4,1,13,0.05
2013-7-23,87,79,73,75,72,69,93,81,58,0.00,40.00,11,3,18,0.05
2013-7-24,82,76,67,71,68,62,95,78,60,0.00,40.00,5,2,13,0.00
2013-7-25,73,67,62,62,57,53,86,72,62,0.00,40.00,9,5,16,0.00
2013-7-26,83,72,61,66,61,59,93,69,45,0.00,40.00,7,2,12,0.00
2013-7-27,83,74,66,70,65,62,94,75,49,0.00,40.00,7,3,14,0.00
2013-7-28,81,74,67,72,68,63,95,82,73,0.00,40.00,14,4,23,2.56
2013-7-29,82,72,63,68,62,53,96,76,38,0.00,40.00,7,2,12,0.01
2013-7-30,81,70,58,64,59,54,96,72,43,0.00,40.00,7,2,12,0.00
2013-7-31,82,72,61,67,63,60,96,75,48,0.00,40.00,5,2,13,0.00
2013-8-1,75,71,68,70,66,61,95,86,67,0.00,40.00,7,3,15,0.38
2013-8-2,85,75,64,69,65,60,96,73,43,0.00,40.00,8,2,7,0.00
2013-8-3,80,73,68,68,67,64,94,81,65,0.00,40.00,6,2,13,0.00
2013-8-4,78,74,61,60,56,51,93,57,40,0.00,40.00,13,5,19,0.00
2013-8-5,78,67,57,60,55,47,95,71,34,0.00,40.00,7,2,15,0.16
2013-8-6,74,66,59,66,62,57,96,89,73,0.00,40.00,5,1,13,0.19
2013-8-7,76,71,66,70,67,64,94,86,80,0.00,40.00,10,3,16,0.27
2013-8-8,86,77,70,74,71,68,94,82,64,0.00,40.00,7,4,14,0.08
2013-8-9,87,80,75,76,74,72,93,83,65,0.00,40.00,8,4,16,0.06
2013-8-10,81,76,68,74,68,64,94,77,57,0.00,40.00,5,2,9,0.00
2013-8-11,83,73,64,68,64,60,95,76,49,0.00,40.00,8,2,14,0.00
2013-8-12,85,75,66,73,69,65,96,83,60,0.00,40.00,5,1,10,0.00
2013-8-13,82,75,71,73,68,-100,95,82,60,0.00,40.00,9,3,18,1.31
2013-8-14,75,67,56,69,54,48,94,65,45,0.00,40.00,15,6,23,0.20
2013-8-15,78,59,54,57,41,-100,95,66,34,0.00,40.00,6,2,11,0.00
2013-8-16,79,64,54,60,51,-100,96,72,36,0.00,40.00,5,1,10,0.00
2013-8-17,80,66,55,60,55,-100,96,72,40,0.00,40.00,5,2,11,0.00
2013-8-18,75,68,63,65,62,59,92,82,57,0.00,40.00,6,2,12,0.00
2013-8-19,77,66,63,66,56,-100,95,82,66,0.00,40.00,7,1,11,0.00
2013-8-20,68,68,67,66,66,65,92,92,91,0.00,40.00,2,1,5,0.00
2013-8-21,88,82,75,73,71,67,83,70,62,0.00,40.00,5,2,11,0.00
2013-8-22,86,76,69,71,70,67,94,82,58,0.00,40.00,5,2,16,0.03
2013-8-23,78,71,64,69,65,60,94,83,63,0.00,40.00,5,2,14,0.00
2013-8-24,81,68,61,62,57,-100,95,72,41,0.00,40.00,11,3,16,0.00
2013-8-25,79,66,52,64,56,50,96,72,37,0.00,40.00,5,2,11,0.00
2013-8-26,84,73,64,66,62,58,84,68,46,0.00,40.00,9,4,13,0.00
2013-8-27,86,78,72,68,67,65,84,70,49,0.00,40.00,11,4,16,0.00
2013-8-28,75,72,71,71,70,69,95,92,89,0.00,40.00,5,1,16,0.09
2013-8-29,82,74,67,71,68,64,95,82,59,0.00,40.00,7,3,17,0.00
2013-8-30,83,77,67,69,68,65,94,73,62,0.00,40.00,7,4,11,0.00
2013-8-31,88,78,71,72,67,-100,93,74,56,0.00,40.00,9,4,14,0.00
2013-9-1,87,79,74,74,72,70,91,79,58,0.00,40.00,11,3,16,0.00
2013-9-2,83,78,74,74,73,69,94,84,68,0.00,40.00,5,2,15,0.00
2013-9-3,83,76,67,72,65,57,94,72,42,0.00,40.00,10,3,17,0.00
2013-9-4,81,70,60,60,56,50,87,63,35,0.00,40.00,8,2,16,0.00
2013-9-5,81,70,60,64,58,47,95,68,44,0.00,40.00,7,3,14,0.00
2013-9-6,74,63,52,54,47,43,94,60,36,0.00,40.00,9,3,13,0.00
2013-9-7,79,64,46,61,51,-100,96,70,38,0.00,40.00,6,2,11,0.00
2013-9-8,84,73,64,65,62,54,92,70,49,0.00,40.00,9,3,15,0.00
2013-9-9,76,66,54,65,55,47,85,69,57,0.00,40.00,10,4,13,0.00
2013-9-10,87,77,70,73,69,65,90,78,60,0.00,40.00,8,4,13,0.00
2013-9-11,91,80,70,74,71,68,94,75,55,0.00,40.00,8,2,12,0.00
2013-9-12,91,78,70,73,70,66,94,77,44,0.00,40.00,6,3,16,0.12
2013-9-13,78,70,61,70,60,50,95,75,43,0.00,40.00,10,3,18,0.00
2013-9-14,68,57,48,50,46,-100,94,70,48,0.00,40.00,7,3,17,0.00
2013-9-15,73,57,42,56,49,41,96,79,44,0.00,40.00,6,2,15,0.00
2013-9-16,71,65,58,62,56,52,90,74,52,0.00,40.00,8,3,15,0.00
2013-9-17,67,56,44,51,43,38,92,65,34,0.00,40.00,7,4,17,0.00
2013-9-18,50,42,39,48,41,38,96,95,93,0.00,40.00,0,0,5,0.00
2013-9-19,76,60,45,57,51,44,96,74,41,0.00,40.00,5,2,12,0.00
2013-9-20,79,64,50,61,55,48,96,75,44,0.00,40.00,6,2,13,0.00
2013-9-21,77,66,51,67,57,-100,96,78,52,0.00,40.00,10,4,21,0.77
2013-9-22,71,64,51,67,53,45,95,73,39,0.00,40.00,13,4,20,0.24
2013-9-23,66,56,47,48,44,41,94,68,43,0.00,40.00,9,3,16,0.00
2013-9-24,71,55,43,51,45,42,96,75,39,0.00,40.00,8,2,15,0.00
2013-9-25,74,57,45,54,48,44,96,77,37,0.00,40.00,5,1,10,0.00
2013-9-26,73,60,50,59,53,49,96,80,52,0.00,40.00,7,1,9,0.00
2013-9-27,72,61,54,56,54,50,96,79,50,0.00,40.00,5,1,14,0.00
2013-9-28,74,60,50,56,49,-100,96,72,41,0.00,40.00,9,2,15,0.00
2013-9-29,72,60,50,56,52,48,96,77,49,0.00,40.00,6,2,15,0.00
2013-9-30,73,58,46,56,50,45,96,77,41,0.00,40.00,5,1,11,0.00
2013-10-1,64,62,61,60,59,58,93,90,88,0.00,40.00,0,0,0,0.00
2013-10-2,83,71,54,64,60,53,96,72,47,0.00,40.00,11,4,15,0.00
2013-10-3,80,69,57,64,60,56,96,78,51,0.00,40.00,4,1,7,0.00
2013-10-4,87,71,59,68,62,58,96,77,42,0.00,40.00,7,1,10,0.00
2013-10-5,88,72,61,68,64,60,96,79,39,0.00,40.00,5,1,11,0.00
2013-10-6,83,73,66,69,66,64,96,80,57,0.00,40.00,8,3,16,0.00
2013-10-7,81,68,60,70,64,53,94,87,61,0.00,40.00,8,4,24,0.47
2013-10-8,64,56,48,53,48,44,94,77,49,0.00,40.00,7,2,20,0.00
2013-10-9,61,54,50,52,48,46,95,79,69,0.00,40.00,10,4,14,0.05
2013-10-10,62,58,55,60,55,52,94,93,90,0.00,40.00,17,9,23,0.58
2013-10-11,64,62,61,61,60,59,94,93,90,0.00,40.00,13,7,22,0.36
2013-10-12,71,63,60,60,55,-100,91,76,62,0.00,40.00,11,8,25,0.01
2013-10-13,68,62,56,58,52,49,92,74,50,0.00,40.00,12,6,26,0.01
2013-10-14,69,58,49,55,51,47,94,79,53,0.00,40.00,7,3,11,0.00
2013-10-15,74,58,48,52,48,41,96,74,31,0.00,40.00,5,-49,11,0.00
2013-10-16,69,62,52,60,57,50,96,86,71,0.00,40.00,5,1,7,0.00
2013-10-17,73,66,60,63,62,59,95,86,67,0.00,40.00,6,2,11,0.00
2013-10-18,68,59,46,63,46,41,94,65,40,0.00,40.00,11,4,20,0.00
2013-10-19,65,54,43,58,47,-100,96,81,47,0.00,40.00,8,2,20,0.00
2013-10-20,63,53,41,53,39,32,93,61,31,0.00,40.00,14,4,19,0.00
2013-10-21,66,53,39,49,42,34,96,70,31,0.00,40.00,9,2,15,0.00
2013-10-22,67,58,48,51,48,43,85,69,46,0.00,40.00,9,2,16,0.00
2013-10-23,58,49,44,45,40,33,94,73,46,0.00,40.00,13,3,15,0.13
2013-10-24,53,46,41,37,32,24,78,60,32,0.00,40.00,11,4,21,0.00
2013-10-25,53,44,35,34,32,31,89,66,44,0.00,40.00,15,4,18,0.00
2013-10-26,57,43,30,34,28,-100,95,64,28,0.00,40.00,11,3,19,0.00
2013-10-27,59,50,36,36,33,30,93,57,33,0.00,40.00,11,4,20,0.00
2013-10-28,64,45,32,44,35,-100,95,76,42,0.00,40.00,4,1,9,0.00
2013-10-29,66,52,39,47,41,36,94,70,41,0.00,40.00,8,2,12,0.00
2013-10-30,59,52,44,53,49,43,96,91,82,0.00,40.00,5,1,8,0.08
2013-10-31,69,59,46,61,55,45,96,85,66,0.00,40.00,6,3,13,0.01
2013-11-1,70,65,59,62,60,57,94,83,69,0.00,40.00,13,4,23,0.15
2013-11-2,69,60,50,60,51,42,96,75,37,0.00,40.00,7,2,15,0.00
2013-11-3,55,47,36,42,30,18,88,54,27,0.00,40.00,11,5,21,0.00
2013-11-4,47,38,29,30,21,15,78,53,27,0.00,40.00,11,3,16,0.00
2013-11-5,59,49,36,44,38,29,88,68,45,0.00,40.00,6,3,11,0.00
2013-11-6,63,54,37,55,47,36,96,79,55,0.00,40.00,11,4,17,0.00
2013-11-7,62,56,47,59,50,34,94,82,58,0.00,40.00,13,4,26,0.05
2013-11-8,51,44,37,31,26,22,69,51,34,0.00,40.00,13,5,24,0.00
2013-11-9,53,42,27,37,28,-100,93,62,36,0.00,40.00,9,3,13,0.00
2013-11-10,62,52,44,37,30,25,71,45,28,0.00,40.00,16,8,30,0.00
2013-11-11,56,48,32,38,31,28,84,53,36,0.00,40.00,10,4,13,0.00
2013-11-12,51,40,28,38,24,13,89,54,37,0.00,40.00,12,4,28,0.02
2013-11-13,41,33,27,22,14,9,86,49,29,0.00,40.00,15,5,23,0.00
2013-11-14,57,43,32,28,21,9,73,47,14,0.00,40.00,10,4,16,0.00
2013-11-15,57,44,30,37,31,27,92,64,32,0.00,40.00,6,1,10,0.00
2013-11-16,51,47,39,48,42,-100,94,88,84,0.00,40.00,3,1,7,0.13
2013-11-17,63,58,50,57,54,48,94,86,74,0.00,40.00,6,3,13,0.00
2013-11-18,67,60,52,61,39,25,95,52,24,0.00,40.00,12,6,22,0.07
2013-11-19,51,45,36,26,24,20,53,43,36,0.00,40.00,17,8,31,0.00
2013-11-20,47,34,25,26,21,13,90,62,25,0.00,40.00,8,1,12,0.00
2013-11-21,55,44,31,42,33,19,78,64,51,0.00,40.00,7,3,13,0.00
2013-11-22,57,52,45,51,48,42,94,86,74,0.00,40.00,5,1,11,0.01
2013-11-23,53,44,34,50,26,-100,94,53,37,0.00,40.00,18,8,30,0.00
2013-11-24,33,28,25,9,-1,-7,51,30,21,0.00,40.00,20,10,32,0.00
2013-11-25,35,28,21,18,11,9,65,50,33,0.00,40.00,9,4,16,0.00
2013-11-26,58,39,33,56,30,18,95,70,41,0.00,40.00,10,3,26,0.80
2013-11-27,60,42,33,57,38,18,95,85,53,0.00,40.00,17,10,32,0.90
2013-11-28,38,32,25,25,17,14,90,58,39,0.00,40.00,14,7,29,0.00
2013-11-29,42,33,22,23,19,17,94,61,40,0.00,40.00,6,2,13,0.00
2013-11-30,44,33,24,30,20,-100,75,64,48,0.00,40.00,6,2,14,0.00
2013-12-1,47,38,27,33,30,24,93,75,50,0.00,40.00,5,1,9,0.00
2013-12-2,49,38,30,35,32,27,95,80,52,0.00,40.00,3,0,6,0.00
2013-12-3,38,37,36,34,34,33,90,88,87,0.00,40.00,1,0,3,0.00
2013-12-5,59,57,54,57,55,52,96,91,82,0.00,40.00,8,4,12,0.01
2013-12-6,62,51,39,60,49,37,96,93,90,0.00,40.00,9,5,21,0.57
2013-12-7,41,36,31,36,29,-100,94,77,60,0.00,40.00,10,5,18,0.24
2013-12-8,31,29,27,30,23,17,96,82,60,0.00,40.00,10,4,16,0.00
2013-12-9,37,34,32,35,33,31,96,95,88,0.00,40.00,6,3,13,1.33
2013-12-10,34,32,31,33,30,22,96,91,71,0.00,40.00,8,3,12,0.03
2013-12-11,37,29,20,22,19,16,95,71,44,0.00,40.00,7,3,18,0.12
2013-12-12,29,25,18,18,12,3,95,63,35,0.00,40.00,7,3,18,0.00
2013-12-13,39,31,25,23,16,12,88,58,35,0.00,40.00,10,4,20,0.00
2013-12-14,48,34,28,47,28,-100,96,82,60,0.00,40.00,11,4,21,0.87
2013-12-15,45,37,32,36,30,22,95,76,55,0.00,40.00,16,7,28,0.00
2013-12-16,36,30,24,25,15,6,80,55,41,0.00,40.00,13,6,24,0.00
2013-12-17,37,32,29,32,22,11,93,71,47,0.00,40.00,5,3,11,0.04
2013-12-18,39,31,24,26,21,15,91,71,38,0.00,40.00,12,4,23,0.00
2013-12-19,53,39,25,31,27,21,91,64,38,0.00,40.00,6,2,11,0.00
2013-12-20,56,50,37,49,37,29,85,64,44,0.00,40.00,9,3,11,0.00
2013-12-21,67,57,51,54,47,-100,83,73,54,0.00,40.00,12,3,16,0.00
2013-12-22,69,62,57,61,58,54,92,86,75,0.00,40.00,12,6,23,0.05
2013-12-23,61,54,42,60,51,32,96,88,67,0.00,40.00,11,4,22,0.37
2013-12-24,41,36,26,30,21,7,79,55,42,0.00,40.00,16,8,28,0.00
2013-12-25,33,26,21,17,10,6,88,53,32,0.00,40.00,12,3,23,0.00
2013-12-26,42,28,19,26,21,15,94,81,45,0.00,40.00,8,1,17,0.00
2013-12-27,48,36,22,26,21,16,95,60,28,0.00,40.00,6,2,17,0.00
2013-12-28,56,43,28,30,24,-100,89,53,31,0.00,40.00,6,2,14,0.00
2013-12-29,53,44,37,52,40,30,95,87,59,0.00,40.00,12,4,24,1.06
2013-12-30,46,38,29,39,30,18,95,74,55,0.00,40.00,13,4,23,0.00
2013-12-31,40,32,25,27,18,14,86,57,44,0.00,40.00,10,4,26,0.00
2014-1-1,42,32,22,31,21,15,92,67,37,0.00,40.00,6,2,15,0.00
2014-1-2,36,32,25,32,28,22,95,87,82,0.00,40.00,9,5,20,0.00